Time;durP1;ratioP1;P1;durP2;ratioP2;P2;SDS_P1;SDS_P2;PMS_P1;PMS_P2;Temp;Humidity;BMP_temperature;BMP_pressure;BME280_temperature;BME280_humidity;BME280_pressure;Samples;Min_cycle;Max_cycle;Signal;HPM_P1;HPM_P2
2023/06/08 00:00:50;;;;;;;5.32;3.55;;;;;;;13.02;91.19;97080.72;4960415;28;20049;-66
2023/06/08 00:03:18;;;;;;;6.10;3.87;;;;;;;13.01;91.13;97079.91;4950929;28;20055;-67
2023/06/08 00:05:47;;;;;;;10.13;3.95;;;;;;;12.97;91.48;97076.09;4960110;28;20074;-67
2023/06/08 00:08:13;;;;;;;6.22;3.45;;;;;;;12.96;91.51;97071.78;4965190;28;20039;-67
2023/06/08 00:10:44;;;;;;;6.20;3.55;;;;;;;12.90;91.88;97064.69;4959549;28;20596;-66
2023/06/08 00:13:12;;;;;;;5.07;3.45;;;;;;;12.88;92.88;97066.91;4961811;28;20045;-66
2023/06/08 00:15:39;;;;;;;7.03;3.47;;;;;;;13.04;91.47;97061.44;4964872;28;20236;-67
2023/06/08 00:18:08;;;;;;;6.75;3.30;;;;;;;12.92;91.98;97067.16;4967338;28;20050;-67
2023/06/08 00:20:35;;;;;;;5.47;3.75;;;;;;;12.86;92.30;97061.72;4961217;28;20451;-66
2023/06/08 00:23:04;;;;;;;7.40;3.53;;;;;;;12.93;92.03;97063.38;4964611;28;20034;-67
2023/06/08 00:25:31;;;;;;;6.50;3.28;;;;;;;12.92;91.39;97061.72;4958677;28;20048;-67
2023/06/08 00:27:58;;;;;;;8.13;3.88;;;;;;;12.93;91.48;97063.38;4960966;28;20043;-68
2023/06/08 00:30:24;;;;;;;4.97;3.42;;;;;;;12.79;92.29;97061.19;4964716;28;20055;-66
2023/06/08 00:32:51;;;;;;;6.20;3.45;;;;;;;12.87;91.95;97074.22;4959485;28;20065;-67
2023/06/08 00:35:17;;;;;;;7.03;3.75;;;;;;;12.87;92.25;97076.13;4958357;28;20036;-66
2023/06/08 00:37:44;;;;;;;5.13;3.33;;;;;;;12.97;91.84;97081.53;4953147;28;20054;-66
2023/06/08 00:40:11;;;;;;;5.32;3.83;;;;;;;12.63;93.43;97078.63;4961373;28;20047;-66
2023/06/08 00:42:38;;;;;;;5.38;3.28;;;;;;;12.64;93.54;97082.97;4956208;28;20062;-68
2023/06/08 00:45:05;;;;;;;5.65;3.72;;;;;;;12.72;93.05;97082.41;4958439;28;20043;-68
2023/06/08 00:47:33;;;;;;;5.95;3.88;;;;;;;12.82;92.34;97079.66;4963652;28;20045;-67
2023/06/08 00:50:02;;;;;;;4.75;3.50;;;;;;;12.90;91.64;97080.22;4951357;28;20046;-66
2023/06/08 00:52:30;;;;;;;6.95;3.75;;;;;;;12.75;92.61;97081.84;4962511;28;20043;-67
2023/06/08 00:55:00;;;;;;;7.25;4.00;;;;;;;12.55;93.55;97079.97;4951371;28;20051;-67
2023/06/08 00:57:28;;;;;;;6.07;3.80;;;;;;;12.48;93.86;97075.63;4962806;28;20150;-67
2023/06/08 00:59:59;;;;;;;4.65;3.30;;;;;;;12.59;93.10;97081.88;4955907;28;20055;-67
2023/06/08 01:02:26;;;;;;;4.75;3.38;;;;;;;12.38;94.18;97082.97;4961936;28;20051;-67
2023/06/08 01:04:53;;;;;;;7.68;3.28;;;;;;;12.26;94.88;97078.59;4960841;28;20690;-67
2023/06/08 01:07:40;;;;;;;8.52;3.67;;;;;;;12.16;95.90;97081.31;4963476;28;20051;-67
2023/06/08 01:10:57;;;;;;;6.05;3.20;;;;;;;11.97;97.33;97073.63;4952290;28;20043;-67
2023/06/08 01:13:31;;;;;;;7.13;3.78;;;;;;;12.06;97.02;97074.75;4944289;28;20086;-66
2023/06/08 01:16:03;;;;;;;5.28;3.42;;;;;;;12.13;96.58;97071.81;4958758;28;20128;-67
2023/06/08 01:18:38;;;;;;;5.82;3.55;;;;;;;12.16;96.16;97071.25;4965053;28;20038;-66
2023/06/08 01:21:37;;;;;;;5.30;3.42;;;;;;;12.09;96.70;97071.53;4964399;28;20039;-67
2023/06/08 01:24:12;;;;;;;5.45;3.40;;;;;;;11.97;97.63;97068.22;4974429;28;20055;-69
2023/06/08 01:26:43;;;;;;;5.68;3.70;;;;;;;11.94;97.90;97069.56;4958432;28;20057;-66
2023/06/08 01:29:13;;;;;;;6.05;3.95;;;;;;;11.94;98.14;97063.34;4960658;28;20039;-66
2023/06/08 01:31:40;;;;;;;7.82;4.00;;;;;;;11.96;98.31;97066.59;4973827;28;20082;-67
2023/06/08 01:34:10;;;;;;;6.40;3.90;;;;;;;12.01;97.69;97053.03;4952235;28;20125;-67
2023/06/08 01:36:51;;;;;;;8.07;3.90;;;;;;;12.01;97.51;97063.88;4976804;28;20039;-66
2023/06/08 01:39:36;;;;;;;6.03;3.70;;;;;;;11.95;98.01;97062.25;4960336;28;20042;-66
2023/06/08 01:42:06;;;;;;;5.97;3.90;;;;;;;12.07;97.18;97057.41;4960138;28;20700;-69
2023/06/08 01:44:39;;;;;;;5.53;3.63;;;;;;;12.15;96.61;97066.09;4957651;28;20067;-67
2023/06/08 01:47:07;;;;;;;6.57;3.30;;;;;;;12.17;96.38;97055.78;4961797;28;20061;-67
2023/06/08 01:49:35;;;;;;;5.82;4.13;;;;;;;12.07;97.34;97057.41;4958911;28;20494;-67
2023/06/08 01:52:02;;;;;;;7.90;3.80;;;;;;;12.12;96.33;97056.59;4979668;28;20042;-67
2023/06/08 01:54:29;;;;;;;5.40;3.30;;;;;;;12.17;96.74;97056.59;4957194;28;20612;-66
2023/06/08 01:56:55;;;;;;;5.38;3.72;;;;;;;12.33;95.83;97059.31;4961111;28;20043;-67
2023/06/08 01:59:23;;;;;;;6.40;3.47;;;;;;;12.12;95.52;97053.88;4948742;28;20039;-66
2023/06/08 02:01:49;;;;;;;4.47;3.20;;;;;;;12.01;96.35;97042.16;4960799;28;20082;-67
2023/06/08 02:04:16;;;;;;;5.80;3.63;;;;;;;11.80;97.89;97041.34;4954752;28;20046;-67
2023/06/08 02:06:43;;;;;;;5.57;3.65;;;;;;;11.55;99.48;97043.72;4961516;28;20066;-66
2023/06/08 02:09:09;;;;;;;5.43;3.80;;;;;;;11.50;100.00;97043.69;4952510;28;20039;-66
2023/06/08 02:11:37;;;;;;;5.40;3.70;;;;;;;11.49;100.00;97042.06;4956533;28;20125;-67
2023/06/08 02:14:04;;;;;;;6.60;3.83;;;;;;;11.54;99.98;97041.25;4971585;28;20043;-67
2023/06/08 02:16:33;;;;;;;5.72;4.32;;;;;;;11.54;99.73;97050.19;4951030;28;20078;-67
2023/06/08 02:19:01;;;;;;;6.38;3.78;;;;;;;11.57;99.80;97041.53;4953149;28;20631;-66
2023/06/08 02:21:27;;;;;;;5.53;3.58;;;;;;;11.60;99.89;97042.09;4955342;28;20518;-67
2023/06/08 02:23:54;;;;;;;5.57;3.40;;;;;;;11.55;99.96;97049.13;4963271;28;20053;-66
2023/06/08 02:26:22;;;;;;;5.38;3.90;;;;;;;11.61;99.71;97052.66;4957324;28;20042;-66
2023/06/08 02:28:48;;;;;;;4.88;3.53;;;;;;;11.55;100.00;97048.31;4961363;28;20046;-66
2023/06/08 02:31:17;;;;;;;5.25;3.97;;;;;;;11.70;99.74;97061.09;4956901;28;20070;-66
2023/06/08 02:33:44;;;;;;;4.88;3.40;;;;;;;11.60;98.91;97058.38;4955741;28;20046;-66
2023/06/08 02:36:11;;;;;;;5.57;3.50;;;;;;;11.44;100.00;97061.84;4959495;28;20058;-67
2023/06/08 02:38:38;;;;;;;5.15;3.40;;;;;;;11.28;100.00;97052.00;4956238;28;20235;-66
2023/06/08 02:41:06;;;;;;;4.82;3.05;;;;;;;11.24;100.00;97050.91;4945505;28;20078;-67
2023/06/08 02:43:37;;;;;;;5.97;3.78;;;;;;;11.37;100.00;97055.84;4959282;28;20043;-67
2023/06/08 02:46:03;;;;;;;6.88;4.03;;;;;;;11.55;100.00;97059.97;4961004;28;20690;-67
2023/06/08 02:48:30;;;;;;;5.38;3.92;;;;;;;11.65;99.59;97061.88;4953597;28;20066;-66
2023/06/08 02:50:57;;;;;;;7.00;3.55;;;;;;;11.74;98.92;97053.22;4953252;28;20457;-67
2023/06/08 02:53:23;;;;;;;7.47;3.60;;;;;;;11.76;98.58;97062.72;4953150;28;20045;-67
2023/06/08 02:55:50;;;;;;;4.90;3.72;;;;;;;11.67;99.13;97058.91;4953838;28;20038;-67
2023/06/08 02:58:23;;;;;;;5.32;3.70;;;;;;;11.53;99.62;97055.88;4949571;28;20039;-67
2023/06/08 03:00:53;;;;;;;4.97;3.65;;;;;;;11.31;100.00;97054.16;4951799;28;20062;-66
2023/06/08 03:03:55;;;;;;;6.10;3.83;;;;;;;11.29;100.00;97054.47;4961679;28;20077;-67
2023/06/08 03:06:33;;;;;;;5.85;4.00;;;;;;;11.33;100.00;97052.03;4959441;28;20051;-67
2023/06/08 03:08:59;;;;;;;5.30;3.85;;;;;;;11.26;100.00;97049.56;4953345;28;20039;-68
2023/06/08 03:11:30;;;;;;;5.30;3.95;;;;;;;11.35;100.00;97054.47;4955920;28;20167;-66
2023/06/08 03:13:56;;;;;;;7.10;4.50;;;;;;;11.21;100.00;97056.84;4951835;28;20776;-67
2023/06/08 03:16:23;;;;;;;6.28;3.85;;;;;;;11.19;100.00;97048.97;4954194;28;20051;-66
2023/06/08 03:18:52;;;;;;;5.97;4.18;;;;;;;11.08;100.00;97047.28;4957589;28;20489;-67
2023/06/08 03:21:20;;;;;;;5.70;4.30;;;;;;;11.13;100.00;97045.44;4963747;28;20054;-66
2023/06/08 03:23:49;;;;;;;5.70;4.00;;;;;;;11.11;100.00;97039.47;4960324;28;20569;-67
2023/06/08 03:26:18;;;;;;;5.10;3.42;;;;;;;11.13;100.00;97044.63;4962958;28;20057;-66
2023/06/08 03:28:44;;;;;;;5.00;3.60;;;;;;;11.25;100.00;97042.53;4965588;28;20047;-67
2023/06/08 03:31:12;;;;;;;5.35;3.47;;;;;;;11.33;100.00;97046.59;4958829;28;20574;-66
2023/06/08 03:33:44;;;;;;;5.45;3.70;;;;;;;11.31;99.97;97044.16;4954246;28;20054;-66
2023/06/08 03:36:11;;;;;;;6.25;3.60;;;;;;;11.08;100.00;97036.44;4963920;28;20070;-66
2023/06/08 03:38:41;;;;;;;6.30;3.95;;;;;;;10.91;100.00;97034.75;4975039;28;20055;-67
2023/06/08 03:41:10;;;;;;;5.80;3.55;;;;;;;10.96;100.00;97040.22;4958877;28;20498;-67
2023/06/08 03:43:38;;;;;;;6.43;3.63;;;;;;;10.97;100.00;97039.13;4959715;28;20044;-66
2023/06/08 03:46:05;;;;;;;6.53;4.03;;;;;;;11.02;100.00;97039.13;4960287;28;20038;-66
2023/06/08 03:48:32;;;;;;;5.72;3.72;;;;;;;11.10;100.00;97045.97;4963926;28;20043;-67
2023/06/08 03:51:00;;;;;;;7.10;3.63;;;;;;;11.09;100.00;97049.75;4954180;28;20721;-66
2023/06/08 03:53:31;;;;;;;5.33;3.77;;;;;;;11.06;100.00;97055.72;4958290;28;20081;-67
2023/06/08 03:55:58;;;;;;;6.13;3.95;;;;;;;11.14;100.00;97052.50;4960797;28;20043;-66
2023/06/08 03:58:25;;;;;;;5.47;3.63;;;;;;;11.24;100.00;97062.53;4958282;28;20046;-66
2023/06/08 04:00:53;;;;;;;5.90;3.88;;;;;;;11.19;100.00;97054.41;4956746;28;20035;-67
2023/06/08 04:03:20;;;;;;;5.40;3.42;;;;;;;11.00;100.00;97054.03;4951799;28;20507;-66
2023/06/08 04:05:47;;;;;;;6.43;3.90;;;;;;;11.03;100.00;97057.03;4951897;28;20054;-66
2023/06/08 04:08:13;;;;;;;5.80;4.05;;;;;;;11.03;100.00;97053.50;4963446;28;20046;-67
2023/06/08 04:10:40;;;;;;;5.72;3.83;;;;;;;11.15;100.00;97064.13;4961125;28;20138;-66
2023/06/08 04:13:06;;;;;;;6.15;3.92;;;;;;;11.24;100.00;97067.97;4956646;28;20050;-67
2023/06/08 04:15:35;;;;;;;7.03;4.15;;;;;;;11.24;100.00;97067.16;4976623;28;20776;-67
2023/06/08 04:18:03;;;;;;;7.78;3.88;;;;;;;11.38;100.00;97075.63;4956877;28;20515;-67
2023/06/08 04:20:29;;;;;;;5.90;3.97;;;;;;;11.44;100.00;97077.28;4965560;28;20039;-67
2023/06/08 04:22:56;;;;;;;7.60;4.03;;;;;;;11.55;100.00;97068.13;4962815;28;20044;-66
2023/06/08 04:25:25;;;;;;;7.20;4.15;;;;;;;11.73;100.00;97070.59;4976717;28;20043;-66
2023/06/08 04:27:52;;;;;;;6.78;4.07;;;;;;;12.02;99.44;97062.78;4952512;28;20619;-67
2023/06/08 04:30:21;;;;;;;7.68;4.00;;;;;;;12.19;98.44;97067.19;4943277;28;20047;-67
2023/06/08 04:32:48;;;;;;;5.50;3.92;;;;;;;12.35;98.31;97063.41;4975127;28;20042;-67
2023/06/08 04:35:15;;;;;;;5.80;4.35;;;;;;;12.43;98.12;97067.50;4978857;28;20042;-67
2023/06/08 04:37:42;;;;;;;5.93;3.65;;;;;;;12.58;97.55;97069.38;4959849;28;20113;-67
2023/06/08 04:40:11;;;;;;;4.97;3.88;;;;;;;12.65;97.60;97079.97;4960887;28;20050;-66
2023/06/08 04:42:39;;;;;;;5.55;3.60;;;;;;;12.91;96.68;97076.41;4957786;28;20052;-67
2023/06/08 04:45:08;;;;;;;7.82;3.90;;;;;;;13.18;95.63;97069.81;4960335;28;20054;-67
2023/06/08 04:47:35;;;;;;;5.88;3.65;;;;;;;13.44;94.08;97069.72;4974334;28;20102;-66
2023/06/08 04:50:03;;;;;;;5.40;3.70;;;;;;;13.67;93.20;97062.03;4960848;28;20046;-66
2023/06/08 04:52:40;;;;;;;7.13;3.20;;;;;;;13.85;93.15;97064.13;4957441;28;20167;-66
2023/06/08 04:55:08;;;;;;;5.20;3.75;;;;;;;14.06;91.50;97064.00;4955858;28;20043;-67
2023/06/08 04:57:35;;;;;;;5.40;3.63;;;;;;;14.30;90.51;97068.75;4970513;28;20053;-67
2023/06/08 05:00:06;;;;;;;5.20;3.50;;;;;;;14.53;89.29;97059.00;4958513;28;20050;-67
2023/06/08 05:02:34;;;;;;;5.03;3.33;;;;;;;14.75;88.29;97071.38;4976274;28;20285;-66
2023/06/08 05:05:01;;;;;;;4.88;3.20;;;;;;;14.94;86.86;97068.75;4953410;28;20051;-67
2023/06/08 05:07:28;;;;;;;6.50;3.17;;;;;;;15.02;86.97;97061.88;4960404;28;20146;-66
2023/06/08 05:09:59;;;;;;;4.72;3.50;;;;;;;15.25;85.98;97064.09;4963364;28;20129;-67
2023/06/08 05:12:25;;;;;;;7.65;3.78;;;;;;;15.40;85.42;97065.81;4959188;28;20043;-67
2023/06/08 05:14:52;;;;;;;5.45;3.13;;;;;;;15.60;84.06;97062.03;4959613;28;20050;-67
2023/06/08 05:17:18;;;;;;;4.22;2.72;;;;;;;15.77;83.64;97061.50;4957393;28;20042;-67
2023/06/08 05:19:45;;;;;;;3.88;2.53;;;;;;;15.96;83.32;97063.50;4958378;28;20458;-67
2023/06/08 05:22:12;;;;;;;5.38;3.25;;;;;;;16.17;80.86;97054.97;4954285;28;20624;-68
2023/06/08 05:24:38;;;;;;;5.07;3.30;;;;;;;16.36;79.20;97044.03;4961838;28;20038;-67
2023/06/08 05:27:05;;;;;;;6.53;3.35;;;;;;;16.51;78.54;97049.25;4961666;28;20078;-68
2023/06/08 05:29:32;;;;;;;5.30;3.08;;;;;;;16.70;78.22;97040.19;4960240;28;20041;-67
2023/06/08 05:32:00;;;;;;;4.55;2.92;;;;;;;16.83;79.71;97035.88;4956927;28;20043;-68
2023/06/08 05:34:27;;;;;;;4.43;2.88;;;;;;;16.85;80.32;97030.88;4958228;28;20077;-69
2023/06/08 05:36:54;;;;;;;4.72;3.10;;;;;;;16.88;81.24;97034.97;4965352;28;20051;-68
2023/06/08 05:39:21;;;;;;;5.10;3.30;;;;;;;16.85;80.65;97032.84;4957495;28;20119;-68
2023/06/08 05:41:48;;;;;;;4.88;3.20;;;;;;;16.87;83.16;97027.84;4965261;28;20058;-67
2023/06/08 05:44:15;;;;;;;4.68;3.47;;;;;;;16.87;85.06;97022.38;4961852;28;20129;-68
2023/06/08 05:46:41;;;;;;;5.95;3.80;;;;;;;16.95;83.78;97015.44;4960160;28;20039;-68
2023/06/08 05:49:08;;;;;;;5.22;3.50;;;;;;;16.76;83.30;97019.84;4960741;28;20490;-67
2023/06/08 05:51:35;;;;;;;5.43;3.13;;;;;;;16.81;83.37;97010.72;4959843;28;20043;-69
2023/06/08 05:54:02;;;;;;;5.07;3.38;;;;;;;16.78;83.90;97005.88;4957757;28;20077;-69
2023/06/08 05:56:28;;;;;;;5.07;3.47;;;;;;;16.86;84.85;97026.25;4952780;28;20070;-68
2023/06/08 05:58:55;;;;;;;5.78;3.33;;;;;;;17.00;83.39;97016.13;4956406;28;20059;-68
2023/06/08 06:01:22;;;;;;;5.30;3.40;;;;;;;17.02;78.93;97013.91;4958301;28;20058;-68
2023/06/08 06:03:50;;;;;;;4.88;3.35;;;;;;;17.15;80.38;97033.41;4958422;28;20055;-68
2023/06/08 06:06:17;;;;;;;6.72;3.60;;;;;;;17.11;77.19;97026.91;4952985;28;20051;-68
2023/06/08 06:08:44;;;;;;;5.88;3.85;;;;;;;16.97;78.61;97038.63;4960420;28;20544;-68
2023/06/08 06:11:10;;;;;;;6.45;4.13;;;;;;;16.95;81.77;97061.91;4962026;28;20121;-68
2023/06/08 06:13:37;;;;;;;5.50;4.10;;;;;;;16.99;81.98;97055.53;4954556;28;20050;-68
2023/06/08 06:16:03;;;;;;;8.82;4.30;;;;;;;17.03;80.66;97037.41;4963279;28;20740;-67
2023/06/08 06:18:32;;;;;;;7.20;4.43;;;;;;;17.08;79.78;97052.94;4962554;28;20622;-68
2023/06/08 06:20:58;;;;;;;5.70;4.25;;;;;;;16.95;83.88;97054.50;4965907;28;20035;-68
2023/06/08 06:23:25;;;;;;;8.88;5.07;;;;;;;16.78;83.58;97049.63;4961440;28;20055;-68
2023/06/08 06:25:52;;;;;;;7.18;5.53;;;;;;;16.93;81.03;97045.81;4958804;28;20066;-68
2023/06/08 06:28:18;;;;;;;7.30;4.78;;;;;;;17.13;81.21;97041.91;4960066;28;20049;-68
2023/06/08 06:30:45;;;;;;;16.35;6.10;;;;;;;17.33;80.63;97044.53;4962571;28;20712;-67
2023/06/08 06:33:11;;;;;;;9.90;5.38;;;;;;;17.44;79.83;97043.22;4957043;28;20045;-68
2023/06/08 06:35:38;;;;;;;7.50;4.82;;;;;;;17.63;77.91;97048.59;4955035;28;20764;-68
2023/06/08 06:38:04;;;;;;;6.60;5.38;;;;;;;17.75;77.44;97053.53;4959692;28;20542;-67
2023/06/08 06:40:31;;;;;;;7.68;5.18;;;;;;;17.83;77.56;97056.66;4962067;28;20415;-67
2023/06/08 06:42:57;;;;;;;7.70;5.28;;;;;;;17.94;76.28;97058.03;4952148;28;20133;-68
2023/06/08 06:45:30;;;;;;;6.55;5.45;;;;;;;18.01;77.13;97057.63;4956331;28;20137;-68
2023/06/08 06:47:56;;;;;;;10.77;5.57;;;;;;;18.12;77.03;97070.00;4952594;28;20647;-67
2023/06/08 06:50:24;;;;;;;7.05;5.10;;;;;;;18.20;75.48;97073.94;4959979;28;20034;-69
2023/06/08 06:52:51;;;;;;;6.63;4.40;;;;;;;18.26;74.91;97066.41;4968157;28;20065;-68
2023/06/08 06:55:17;;;;;;;7.40;4.75;;;;;;;18.36;74.63;97076.31;4969573;28;20046;-69
2023/06/08 06:57:44;;;;;;;7.85;4.65;;;;;;;18.52;74.57;97079.50;4963751;28;20035;-69
2023/06/08 07:00:11;;;;;;;7.45;4.50;;;;;;;18.66;73.83;97082.19;4959074;28;20514;-69
2023/06/08 07:02:38;;;;;;;6.05;4.53;;;;;;;18.87;73.65;97087.94;4969110;28;20117;-68
2023/06/08 07:05:06;;;;;;;6.82;4.53;;;;;;;19.05;72.50;97085.31;4958211;28;20122;-70
2023/06/08 07:07:36;;;;;;;6.45;4.18;;;;;;;19.21;71.62;97091.22;4962369;28;20050;-68
2023/06/08 07:10:03;;;;;;;5.63;3.80;;;;;;;19.33;70.80;97096.13;4958332;28;20615;-67
2023/06/08 07:12:30;;;;;;;6.50;4.13;;;;;;;19.23;70.54;97094.47;4965098;28;20047;-70
2023/06/08 07:14:57;;;;;;;4.93;3.40;;;;;;;19.35;69.74;97096.63;4965987;28;20117;-68
2023/06/08 07:17:24;;;;;;;5.95;3.60;;;;;;;19.45;69.93;97098.25;4964950;28;20058;-69
2023/06/08 07:19:52;;;;;;;5.45;4.05;;;;;;;19.46;69.80;97091.66;4966647;28;20050;-67
2023/06/08 07:22:19;;;;;;;5.85;4.20;;;;;;;19.36;69.36;97099.03;4957285;28;20043;-69
2023/06/08 07:25:06;;;;;;;8.25;4.57;;;;;;;19.35;69.83;97100.16;4966976;28;20043;-68
2023/06/08 07:27:53;;;;;;;6.70;4.65;;;;;;;19.36;69.85;97099.03;4959593;28;20050;-68
2023/06/08 07:30:19;;;;;;;6.63;3.85;;;;;;;19.43;69.17;97097.78;4961134;28;20039;-67
2023/06/08 07:32:46;;;;;;;7.32;4.60;;;;;;;19.51;68.43;97105.25;4963475;28;20137;-69
2023/06/08 07:35:12;;;;;;;6.68;4.30;;;;;;;19.53;67.44;97105.72;4963668;28;20077;-70
2023/06/08 07:37:39;;;;;;;5.55;4.13;;;;;;;19.61;67.54;97112.38;4954653;28;20051;-69
2023/06/08 07:40:07;;;;;;;5.72;3.83;;;;;;;19.71;67.94;97106.59;4961748;28;20132;-69
2023/06/08 07:42:35;;;;;;;6.78;3.55;;;;;;;19.82;67.63;97111.78;4962509;28;20058;-68
2023/06/08 07:45:01;;;;;;;6.22;4.50;;;;;;;19.84;65.48;97117.78;4959518;28;20040;-70
2023/06/08 07:47:28;;;;;;;6.38;4.60;;;;;;;19.60;65.86;97111.56;4958215;28;20051;-68
2023/06/08 07:49:56;;;;;;;7.10;4.30;;;;;;;19.75;67.05;97112.25;4957680;28;20426;-68
2023/06/08 07:56:27;;;;;;;7.45;4.20;;;;;;;19.76;66.17;97111.94;4959059;28;20026;-69
2023/06/08 07:58:54;;;;;;;5.10;3.80;;;;;;;19.96;65.48;97104.22;4959024;28;20119;-68
2023/06/08 08:01:21;;;;;;;5.55;3.90;;;;;;;20.20;63.08;97105.72;4964251;28;20035;-69
2023/06/08 08:03:47;;;;;;;5.53;3.45;;;;;;;20.44;61.57;97103.63;4962334;28;20089;-69
2023/06/08 08:06:14;;;;;;;7.15;3.78;;;;;;;20.39;61.58;97107.38;4966867;28;20785;-68
2023/06/08 08:08:41;;;;;;;4.80;3.58;;;;;;;20.22;62.36;97099.91;4957022;28;20047;-68
2023/06/08 08:11:08;;;;;;;6.15;3.78;;;;;;;20.42;62.92;97108.66;4962125;28;20554;-69
2023/06/08 08:13:35;;;;;;;6.43;3.80;;;;;;;20.56;62.47;97112.06;4960396;28;20043;-69
2023/06/08 08:16:01;;;;;;;6.43;4.45;;;;;;;20.63;60.20;97108.81;4962251;28;20050;-69
2023/06/08 08:18:28;;;;;;;5.63;3.53;;;;;;;20.86;59.88;97108.63;4956801;28;20403;-69
2023/06/08 08:20:55;;;;;;;7.45;3.63;;;;;;;20.87;60.59;97115.75;4959893;28;20047;-70
2023/06/08 08:23:21;;;;;;;6.07;4.40;;;;;;;20.94;59.74;97107.84;4962668;28;20614;-68
2023/06/08 08:25:48;;;;;;;6.97;4.28;;;;;;;21.06;60.52;97104.41;4959345;28;20051;-68
2023/06/08 08:28:14;;;;;;;9.48;4.00;;;;;;;21.01;60.37;97105.38;4960358;28;20054;-68
2023/06/08 08:30:41;;;;;;;5.18;3.40;;;;;;;21.10;60.17;97105.38;4963909;28;20035;-67
2023/06/08 08:33:08;;;;;;;5.38;3.90;;;;;;;21.17;59.10;97102.94;4959583;28;20069;-70
2023/06/08 08:35:35;;;;;;;4.97;3.47;;;;;;;21.25;58.10;97101.28;4962664;28;20042;-70
2023/06/08 08:38:02;;;;;;;5.90;3.92;;;;;;;21.20;57.26;97100.66;4963798;28;20555;-66
2023/06/08 08:40:28;;;;;;;6.50;3.80;;;;;;;21.32;56.49;97100.75;4964296;28;20047;-69
2023/06/08 08:43:24;;;;;;;4.85;3.60;;;;;;;21.15;57.46;97105.19;4964277;28;20062;-71
2023/06/08 08:45:51;;;;;;;4.78;3.83;;;;;;;21.17;56.80;97099.34;4964903;28;20110;-66
2023/06/08 08:48:21;;;;;;;6.70;3.80;;;;;;;21.12;57.85;97100.34;4961558;28;20043;-70
2023/06/08 08:50:53;;;;;;;5.60;3.37;;;;;;;21.23;56.84;97106.28;4961068;28;20034;-69
2023/06/08 08:53:27;;;;;;;5.35;3.95;;;;;;;21.26;57.18;97100.13;4962214;28;20038;-70
2023/06/08 08:55:55;;;;;;;7.18;3.60;;;;;;;21.50;57.17;97107.03;4963057;28;20038;-69
2023/06/08 08:58:23;;;;;;;5.82;3.60;;;;;;;21.61;57.65;97098.38;4958870;28;20039;-67
2023/06/08 09:00:50;;;;;;;5.75;4.10;;;;;;;21.67;57.18;97105.31;4956518;28;20703;-65
2023/06/08 09:03:16;;;;;;;5.53;4.03;;;;;;;21.67;56.93;97108.09;4950326;28;20109;-67
2023/06/08 09:05:45;;;;;;;4.97;3.80;;;;;;;21.84;57.37;97112.72;4961718;28;20134;-68
2023/06/08 09:08:11;;;;;;;7.55;3.90;;;;;;;21.85;57.07;97110.78;4961746;28;20049;-65
2023/06/08 09:10:38;;;;;;;5.97;3.50;;;;;;;21.93;55.52;97094.16;4956949;28;20560;-63
2023/06/08 09:13:05;;;;;;;5.97;3.92;;;;;;;22.12;54.82;97094.88;4956139;28;20053;-64
2023/06/08 09:15:34;;;;;;;6.22;3.90;;;;;;;22.28;56.27;97086.78;4962231;23;20145;-76
2023/06/08 09:18:22;;;;;;;5.68;3.70;;;;;;;22.42;52.97;97087.34;4968941;28;20039;-77
2023/06/08 09:20:49;;;;;;;8.48;3.60;;;;;;;22.53;52.24;97089.69;4955004;28;20077;-76
2023/06/08 09:27:23;;;;;;;5.78;3.70;;;;;;;22.46;51.51;97079.19;4951932;28;20050;-75
2023/06/08 09:29:50;;;;;;;5.05;3.38;;;;;;;22.55;50.36;97084.66;4959868;28;20066;-73
2023/06/08 09:32:25;;;;;;;5.22;3.20;;;;;;;22.52;49.31;97077.81;4953468;28;20040;-74
2023/06/08 09:35:01;;;;;;;4.55;3.30;;;;;;;22.48;49.06;97087.91;4952518;28;20097;-74
2023/06/08 09:37:36;;;;;;;4.15;3.20;;;;;;;22.52;47.81;97075.06;4954709;28;20043;-75
2023/06/08 09:40:12;;;;;;;6.13;2.85;;;;;;;22.55;47.56;97077.19;4949667;28;20059;-73
2023/06/08 09:42:50;;;;;;;4.53;3.03;;;;;;;22.66;46.74;97074.81;4942879;28;20035;-72
2023/06/08 09:45:18;;;;;;;4.88;3.47;;;;;;;22.75;46.70;97071.97;4950781;28;20123;-73
2023/06/08 09:47:45;;;;;;;4.55;3.20;;;;;;;23.17;46.76;97065.50;4944733;28;20050;-72
2023/06/08 09:50:11;;;;;;;5.25;3.03;;;;;;;23.57;45.13;97066.03;4951098;28;20097;-74
2023/06/08 09:52:38;;;;;;;4.45;2.80;;;;;;;23.74;41.72;97059.47;4952436;28;20126;-74
2023/06/08 09:55:05;;;;;;;4.40;2.92;;;;;;;23.82;41.88;97061.28;4951852;28;20054;-77
2023/06/08 09:57:36;;;;;;;4.55;3.08;;;;;;;24.07;42.13;97061.25;4954931;28;20426;-73
2023/06/08 10:00:08;;;;;;;5.37;3.53;;;;;;;24.01;45.01;97057.94;4959987;28;20035;-73
2023/06/08 10:03:06;;;;;;;6.50;3.33;;;;;;;23.74;44.92;97046.44;4943848;28;20069;-73
2023/06/08 10:05:36;;;;;;;5.43;3.30;;;;;;;23.82;45.24;97044.72;4945220;28;20123;-73
2023/06/08 10:08:07;;;;;;;6.50;3.65;;;;;;;23.81;43.71;97050.59;4941401;28;20498;-72
2023/06/08 10:10:36;;;;;;;4.40;3.17;;;;;;;23.59;43.60;97045.19;4929564;28;20102;-73
2023/06/08 10:13:04;;;;;;;4.47;2.97;;;;;;;23.52;43.25;97051.28;4945675;28;20573;-73
2023/06/08 10:15:34;;;;;;;5.20;3.13;;;;;;;23.49;43.47;97045.66;4947381;28;20070;-72
2023/06/08 10:18:02;;;;;;;5.35;3.15;;;;;;;23.48;44.14;97046.81;4948104;28;20073;-73
2023/06/08 10:20:30;;;;;;;6.38;3.33;;;;;;;23.61;42.62;97042.88;4952151;28;20046;-72
2023/06/08 10:22:59;;;;;;;6.57;3.70;;;;;;;23.42;44.28;97037.94;4950071;28;20051;-73
2023/06/08 10:25:30;;;;;;;6.68;4.22;;;;;;;23.38;45.42;97039.78;4950362;28;20070;-73
2023/06/08 10:28:05;;;;;;;5.65;3.83;;;;;;;23.46;45.83;97033.34;4948196;28;20070;-73
2023/06/08 10:30:41;;;;;;;5.47;3.47;;;;;;;23.54;45.11;97025.28;4943112;28;20684;-74
2023/06/08 10:33:15;;;;;;;7.15;3.38;;;;;;;23.63;43.93;97028.72;4940609;28;20085;-73
2023/06/08 10:36:02;;;;;;;5.55;3.38;;;;;;;23.89;42.92;97031.09;4945755;28;20043;-74
2023/06/08 10:38:33;;;;;;;4.50;3.20;;;;;;;23.94;42.47;97034.75;4945899;28;20075;-73
2023/06/08 10:41:00;;;;;;;8.80;3.40;;;;;;;23.80;43.33;97024.88;4953831;28;20061;-73
2023/06/08 10:43:30;;;;;;;5.40;3.42;;;;;;;23.86;43.38;97025.47;4946402;28;20047;-73
2023/06/08 10:46:16;;;;;;;7.53;3.83;;;;;;;23.93;43.40;97031.22;4959297;28;20046;-73
2023/06/08 10:48:43;;;;;;;5.03;3.55;;;;;;;23.90;43.17;97024.44;4952627;28;20063;-73
2023/06/08 10:51:22;;;;;;;5.55;3.60;;;;;;;23.92;41.98;97020.50;4958930;28;20101;-74
2023/06/08 10:53:58;;;;;;;6.95;3.88;;;;;;;23.97;44.04;97009.19;4950141;28;20053;-74
2023/06/08 10:56:26;;;;;;;5.18;4.03;;;;;;;24.08;43.20;97021.38;4942676;28;20050;-74
2023/06/08 10:58:53;;;;;;;4.75;3.35;;;;;;;24.21;42.84;97016.63;4954206;28;20051;-74
2023/06/08 11:01:20;;;;;;;6.95;3.83;;;;;;;24.27;41.23;97020.78;4947150;28;20043;-74
2023/06/08 11:03:47;;;;;;;4.63;3.38;;;;;;;24.34;40.04;97020.16;4946715;28;20498;-73
2023/06/08 11:06:14;;;;;;;5.43;3.58;;;;;;;24.30;39.50;97008.19;4954348;28;20541;-74
2023/06/08 11:08:42;;;;;;;5.40;3.50;;;;;;;24.24;39.91;97006.81;4957005;28;20055;-73
2023/06/08 11:11:10;;;;;;;8.85;3.70;;;;;;;24.48;39.66;97013.41;4948308;28;20039;-74
2023/06/08 11:13:37;;;;;;;7.57;4.05;;;;;;;24.74;40.60;97007.41;4950879;28;20039;-74
2023/06/08 11:16:04;;;;;;;4.95;3.22;;;;;;;24.96;38.96;97009.94;4958123;28;20046;-74
2023/06/08 11:18:31;;;;;;;7.55;3.58;;;;;;;25.12;37.72;97002.44;4954440;28;20051;-75
2023/06/08 11:20:58;;;;;;;5.40;3.60;;;;;;;25.08;38.79;97004.31;4950641;28;20042;-75
2023/06/08 11:23:25;;;;;;;4.90;3.53;;;;;;;24.90;39.15;97001.91;4953088;28;20032;-76
2023/06/08 11:25:52;;;;;;;5.50;3.95;;;;;;;24.94;39.83;96994.50;4944187;28;20051;-75
2023/06/08 11:28:19;;;;;;;6.75;3.97;;;;;;;25.01;39.85;96984.75;4949880;28;20051;-76
2023/06/08 11:30:45;;;;;;;5.47;3.92;;;;;;;24.96;39.81;96990.56;4953849;28;20416;-75
2023/06/08 11:33:14;;;;;;;5.47;3.90;;;;;;;24.97;40.06;96981.91;4953327;28;20128;-75
2023/06/08 11:35:42;;;;;;;5.60;3.88;;;;;;;25.02;40.17;96987.16;4958544;28;20035;-75
2023/06/08 11:38:08;;;;;;;5.50;4.28;;;;;;;24.98;40.06;96980.75;4951872;28;20049;-75
2023/06/08 11:40:41;;;;;;;4.85;3.80;;;;;;;25.11;39.96;96964.84;4959855;28;20039;-74
2023/06/08 11:43:11;;;;;;;4.63;3.70;;;;;;;25.18;39.49;96965.00;4954698;28;20449;-76
2023/06/08 11:45:39;;;;;;;6.30;3.88;;;;;;;25.03;39.83;96954.75;4953340;28;20043;-75
2023/06/08 11:48:06;;;;;;;6.10;3.80;;;;;;;24.95;39.87;96959.31;4941643;28;20043;-75